Time;durP1;ratioP1;P1;durP2;ratioP2;P2;SDS_P1;SDS_P2;PMS_P1;PMS_P2;Temp;Humidity;BMP_temperature;BMP_pressure;BME280_temperature;BME280_humidity;BME280_pressure;Samples;Min_cycle;Max_cycle;Signal;HPM_P1;HPM_P2
2022/12/31 00:01:20;;;;;;;20.80;2.65;;;7.60;99.90;;;;;;4916816;29;20032;-89
2022/12/31 00:03:46;;;;;;;19.60;2.90;;;7.60;99.90;;;;;;4934520;29;20043;-89
2022/12/31 00:06:31;;;;;;;21.88;2.30;;;7.60;99.90;;;;;;4922999;29;20031;-89
2022/12/31 00:08:59;;;;;;;17.20;2.70;;;7.60;99.90;;;;;;4921074;29;20024;-90
2022/12/31 00:11:27;;;;;;;31.83;3.75;;;7.60;99.90;;;;;;4920062;29;20052;-89
2022/12/31 00:13:54;;;;;;;25.35;2.78;;;7.70;99.90;;;;;;4918368;29;20052;-89
2022/12/31 00:16:22;;;;;;;25.08;2.60;;;7.70;99.90;;;;;;4916579;29;20123;-88
2022/12/31 00:18:49;;;;;;;9.35;1.65;;;7.70;99.90;;;;;;4916025;29;20490;-89
2022/12/31 00:21:16;;;;;;;34.38;2.90;;;7.70;99.90;;;;;;4916078;29;20036;-89
2022/12/31 00:23:42;;;;;;;27.60;2.80;;;7.70;99.90;;;;;;4916059;29;20405;-89
2022/12/31 00:26:14;;;;;;;26.40;3.63;;;7.80;99.90;;;;;;4916138;29;20503;-90
2022/12/31 00:28:40;;;;;;;20.75;2.50;;;7.80;99.90;;;;;;4916329;29;20401;-89
2022/12/31 00:31:09;;;;;;;22.63;2.60;;;7.80;99.90;;;;;;4916153;29;20028;-90
2022/12/31 00:33:36;;;;;;;25.13;3.83;;;7.80;99.90;;;;;;4915958;29;20024;-89
2022/12/31 00:36:14;;;;;;;18.45;2.80;;;7.80;99.90;;;;;;4916052;29;20040;-90
2022/12/31 00:38:42;;;;;;;28.75;3.60;;;7.80;99.90;;;;;;4916105;29;20024;-89
2022/12/31 00:41:08;;;;;;;20.23;2.38;;;7.90;99.90;;;;;;4915999;29;20059;-89
2022/12/31 00:43:34;;;;;;;20.10;2.70;;;7.90;99.90;;;;;;4915737;29;20036;-89
2022/12/31 00:46:00;;;;;;;23.38;3.38;;;7.80;99.90;;;;;;4916154;29;20032;-90
2022/12/31 00:48:26;;;;;;;18.27;2.83;;;7.80;99.90;;;;;;4917299;29;20451;-89
2022/12/31 00:50:53;;;;;;;18.42;2.70;;;7.80;99.90;;;;;;4916815;29;20024;-90
2022/12/31 00:53:20;;;;;;;21.40;3.05;;;7.90;99.90;;;;;;4915485;29;20032;-89
2022/12/31 00:55:46;;;;;;;18.05;3.53;;;7.80;99.90;;;;;;4916076;29;20029;-89
2022/12/31 00:58:11;;;;;;;15.48;2.28;;;7.90;99.90;;;;;;4915949;29;20092;-89
2022/12/31 01:00:37;;;;;;;23.55;2.75;;;7.90;99.90;;;;;;4918946;29;20036;-89
2022/12/31 01:03:04;;;;;;;19.10;2.22;;;7.90;99.90;;;;;;4935171;29;20044;-89
2022/12/31 01:05:31;;;;;;;15.85;2.50;;;7.90;99.90;;;;;;4919350;29;20501;-90
2022/12/31 01:07:57;;;;;;;19.17;3.05;;;7.90;99.90;;;;;;4919541;29;20036;-89
2022/12/31 01:13:27;;;;;;;30.00;2.40;;;7.90;99.90;;;;;;4918160;29;20052;-89
2022/12/31 01:15:52;;;;;;;18.45;3.10;;;7.90;99.90;;;;;;4917999;29;20784;-89
2022/12/31 01:18:18;;;;;;;14.82;2.38;;;7.90;99.90;;;;;;4902113;29;20482;-89
2022/12/31 01:20:43;;;;;;;26.25;3.33;;;7.90;99.90;;;;;;4918091;29;20127;-89
2022/12/31 01:23:10;;;;;;;17.05;2.50;;;7.90;99.90;;;;;;4902720;29;20044;-88
2022/12/31 01:25:37;;;;;;;14.07;2.03;;;7.90;99.90;;;;;;4918045;29;20044;-89
2022/12/31 01:28:04;;;;;;;19.52;2.47;;;7.90;99.90;;;;;;4901899;29;20111;-90
2022/12/31 01:30:30;;;;;;;19.70;2.75;;;7.90;99.90;;;;;;4901967;29;20032;-90
2022/12/31 01:32:56;;;;;;;22.35;2.42;;;7.90;99.90;;;;;;4917954;29;20031;-89
2022/12/31 01:35:24;;;;;;;21.98;2.75;;;7.90;99.90;;;;;;4902277;29;20060;-89
2022/12/31 01:37:50;;;;;;;9.77;1.70;;;7.90;99.90;;;;;;4901983;29;20048;-90
2022/12/31 01:40:16;;;;;;;15.63;2.97;;;7.90;99.90;;;;;;4901807;29;20032;-89
2022/12/31 01:42:41;;;;;;;16.70;3.13;;;7.90;99.90;;;;;;4901729;29;20040;-89
2022/12/31 01:45:12;;;;;;;19.88;1.80;;;8.00;99.90;;;;;;4916278;29;20123;-90
2022/12/31 01:47:45;;;;;;;19.15;2.20;;;8.00;99.90;;;;;;4918825;29;20083;-90
2022/12/31 01:50:20;;;;;;;22.17;3.28;;;8.00;99.90;;;;;;4919820;29;20055;-89
2022/12/31 01:52:49;;;;;;;29.45;3.05;;;8.00;99.90;;;;;;4919457;29;20024;-89
2022/12/31 01:55:29;;;;;;;24.23;2.83;;;8.00;99.90;;;;;;4918442;29;20031;-89
2022/12/31 01:58:18;;;;;;;15.05;2.90;;;8.00;99.90;;;;;;4918709;29;20068;-89
2022/12/31 02:00:45;;;;;;;12.20;1.95;;;8.00;99.90;;;;;;4918208;29;20024;-89
2022/12/31 02:03:12;;;;;;;15.00;3.05;;;8.00;99.90;;;;;;4918142;29;20032;-89
2022/12/31 02:06:04;;;;;;;18.60;2.53;;;8.00;99.90;;;;;;4917997;29;20475;-88
2022/12/31 02:08:30;;;;;;;21.42;2.97;;;8.00;99.90;;;;;;4919263;29;20040;-88
2022/12/31 02:10:55;;;;;;;22.75;2.80;;;8.10;99.90;;;;;;4933459;29;20501;-89
2022/12/31 02:13:21;;;;;;;19.40;3.10;;;8.10;99.90;;;;;;4917996;29;20036;-90
2022/12/31 02:16:00;;;;;;;21.42;2.50;;;8.10;99.90;;;;;;4918067;29;20028;-91
2022/12/31 02:18:45;;;;;;;17.45;2.45;;;8.10;99.90;;;;;;4917829;29;20048;-92
2022/12/31 02:21:24;;;;;;;22.83;3.28;;;8.10;99.90;;;;;;4918310;29;20054;-91
2022/12/31 02:24:06;;;;;;;22.67;3.30;;;8.10;99.90;;;;;;4918961;29;20036;-90
2022/12/31 02:27:07;;;;;;;25.10;3.85;;;8.00;99.90;;;;;;4918105;29;20039;-90
2022/12/31 02:29:48;;;;;;;;;;;8.00;99.90;;;;;;4934144;29;20501;-90
2022/12/31 02:32:21;;;;;;;22.55;2.45;;;8.00;99.90;;;;;;4933537;29;19911;-88
2022/12/31 02:34:53;;;;;;;19.33;2.72;;;8.00;99.90;;;;;;4917855;29;20028;-89
2022/12/31 02:37:21;;;;;;;26.23;2.80;;;8.00;99.90;;;;;;4917903;29;20043;-90
2022/12/31 02:39:48;;;;;;;17.73;3.13;;;8.00;99.90;;;;;;4918753;29;20024;-88
2022/12/31 02:42:13;;;;;;;13.80;1.63;;;8.00;99.90;;;;;;4918408;29;20034;-89
2022/12/31 02:44:41;;;;;;;15.35;1.92;;;8.00;99.90;;;;;;4918741;29;20032;-89
2022/12/31 02:47:25;;;;;;;20.88;3.42;;;8.00;99.90;;;;;;4917430;29;20470;-89
2022/12/31 02:50:09;;;;;;;15.43;2.85;;;8.00;99.90;;;;;;4917857;29;20036;-90
2022/12/31 02:52:47;;;;;;;10.75;1.75;;;8.00;99.90;;;;;;4917377;29;20028;-89
2022/12/31 02:55:35;;;;;;;15.70;2.60;;;8.00;99.90;;;;;;4918774;29;20063;-89
2022/12/31 02:58:20;;;;;;;16.10;2.05;;;8.10;99.90;;;;;;4917433;29;20028;-89
2022/12/31 03:03:39;;;;;;;6.35;1.38;;;8.20;99.90;;;;;;4937001;29;20462;-89
2022/12/31 03:06:06;;;;;;;9.05;1.55;;;8.20;99.90;;;;;;4937174;29;20046;-90
2022/12/31 03:09:11;;;;;;;10.02;1.65;;;8.20;99.90;;;;;;4936280;29;20078;-88
2022/12/31 03:12:45;;;;;;;11.43;1.52;;;8.20;99.90;;;;;;4936944;29;20435;-90
2022/12/31 03:14:03;;;;;;;11.30;2.67;;;8.20;99.90;;;;;;4937266;29;20059;-90
2022/12/31 03:16:29;;;;;;;8.50;1.58;;;8.20;99.90;;;;;;4940060;29;20144;-88
2022/12/31 03:27:07;;;;;;;11.43;1.80;;;8.20;99.90;;;;;;4937836;29;20043;-89
2022/12/31 03:29:32;;;;;;;7.60;1.40;;;8.10;99.90;;;;;;4951636;29;20027;-90
2022/12/31 03:31:58;;;;;;;13.18;2.53;;;8.10;99.90;;;;;;4935485;29;20480;-89
2022/12/31 03:34:23;;;;;;;6.00;1.20;;;8.10;99.90;;;;;;4951592;29;20028;-89
2022/12/31 03:36:49;;;;;;;8.77;1.40;;;8.10;99.90;;;;;;4951429;29;20040;-89
2022/12/31 03:39:15;;;;;;;10.40;2.00;;;8.10;99.90;;;;;;4936473;29;20027;-89
2022/12/31 03:41:40;;;;;;;6.88;1.38;;;8.10;99.90;;;;;;4951439;29;20035;-89
2022/12/31 03:44:06;;;;;;;7.53;1.35;;;8.10;99.90;;;;;;4951442;29;20039;-90
2022/12/31 03:46:31;;;;;;;11.77;1.40;;;8.10;99.90;;;;;;4935178;29;20028;-90
2022/12/31 03:48:57;;;;;;;9.27;1.20;;;8.10;99.90;;;;;;4935386;29;20115;-90
2022/12/31 03:51:23;;;;;;;6.15;1.17;;;8.10;99.90;;;;;;4936368;29;20031;-89
2022/12/31 03:53:49;;;;;;;8.75;1.30;;;8.10;99.90;;;;;;4951069;29;20031;-88
2022/12/31 03:56:14;;;;;;;7.38;1.80;;;8.10;99.90;;;;;;4935173;29;20040;-89
2022/12/31 03:58:40;;;;;;;9.98;1.75;;;8.10;99.90;;;;;;4951112;29;20042;-89
2022/12/31 04:01:05;;;;;;;8.77;1.55;;;8.10;99.90;;;;;;4936232;29;20028;-89
2022/12/31 04:03:31;;;;;;;3.00;0.90;;;8.10;99.90;;;;;;4936235;29;20067;-88
2022/12/31 04:05:57;;;;;;;5.57;1.20;;;8.10;99.90;;;;;;4936417;29;20028;-89
2022/12/31 04:08:23;;;;;;;2.75;0.85;;;8.10;99.90;;;;;;4935345;29;20034;-90
2022/12/31 04:10:49;;;;;;;5.47;1.40;;;8.10;99.90;;;;;;4936161;29;20050;-89
2022/12/31 04:13:15;;;;;;;5.05;0.80;;;8.20;99.90;;;;;;4935046;29;20031;-89
2022/12/31 04:15:40;;;;;;;8.73;1.00;;;8.10;99.90;;;;;;4951149;29;20502;-88
2022/12/31 04:18:06;;;;;;;4.10;0.80;;;8.20;99.90;;;;;;4951103;29;20619;-89
2022/12/31 04:20:32;;;;;;;7.60;1.10;;;8.20;99.90;;;;;;4936368;29;20040;-89
2022/12/31 04:22:57;;;;;;;3.03;0.80;;;8.20;99.90;;;;;;4936076;29;20024;-89
2022/12/31 04:25:23;;;;;;;5.70;1.15;;;8.10;99.90;;;;;;4935987;29;20032;-89
2022/12/31 04:27:48;;;;;;;2.72;0.55;;;8.10;99.90;;;;;;4936064;29;20382;-89
2022/12/31 04:30:14;;;;;;;3.75;0.80;;;8.10;99.90;;;;;;4934847;29;20035;-88
2022/12/31 04:32:40;;;;;;;3.28;0.90;;;8.10;99.90;;;;;;4935020;29;20055;-90
2022/12/31 04:35:06;;;;;;;4.20;0.57;;;8.10;99.90;;;;;;4938940;29;20032;-89
2022/12/31 04:37:32;;;;;;;1.38;0.30;;;8.10;99.90;;;;;;4939825;29;20111;-89
2022/12/31 04:39:58;;;;;;;2.38;0.60;;;8.10;99.90;;;;;;4922682;29;20067;-90
2022/12/31 04:42:23;;;;;;;2.03;0.65;;;8.10;99.90;;;;;;4939700;29;20051;-89
2022/12/31 04:44:49;;;;;;;3.13;0.45;;;8.10;99.90;;;;;;4939667;29;20039;-90
2022/12/31 04:47:15;;;;;;;3.13;0.55;;;8.10;99.90;;;;;;4922408;29;20028;-89
2022/12/31 04:49:40;;;;;;;2.47;0.52;;;8.10;99.90;;;;;;4938718;29;20362;-88
2022/12/31 04:52:06;;;;;;;5.00;1.00;;;8.10;99.90;;;;;;4922613;29;20122;-90
2022/12/31 04:54:31;;;;;;;0.68;0.30;;;8.10;99.90;;;;;;4938526;29;20466;-90
2022/12/31 04:56:57;;;;;;;1.90;0.70;;;8.10;99.90;;;;;;4939571;29;20032;-89
2022/12/31 04:59:23;;;;;;;2.58;0.70;;;8.10;99.90;;;;;;4922243;29;20051;-89
2022/12/31 05:01:48;;;;;;;1.85;0.50;;;8.10;99.90;;;;;;4939369;29;20367;-89
2022/12/31 05:04:14;;;;;;;0.65;0.60;;;8.10;99.90;;;;;;4922386;29;20040;-89
2022/12/31 05:06:39;;;;;;;1.80;0.60;;;8.10;99.90;;;;;;4939462;29;20042;-89
2022/12/31 05:09:05;;;;;;;2.92;0.60;;;8.10;99.90;;;;;;4938366;29;20030;-90
2022/12/31 05:11:31;;;;;;;1.60;0.70;;;8.00;99.90;;;;;;4939281;29;20462;-90
2022/12/31 05:13:56;;;;;;;1.10;0.57;;;8.00;99.90;;;;;;4922288;29;20055;-90
2022/12/31 05:16:22;;;;;;;2.88;0.70;;;8.00;99.90;;;;;;4939321;29;20059;-90
2022/12/31 05:18:47;;;;;;;4.55;0.60;;;8.00;99.90;;;;;;4939145;29;20055;-89
2022/12/31 05:21:19;;;;;;;2.65;0.80;;;8.00;99.90;;;;;;4938111;29;20036;-89
2022/12/31 05:23:45;;;;;;;2.47;0.70;;;8.00;99.90;;;;;;4938887;29;20032;-88
2022/12/31 05:26:11;;;;;;;2.47;0.70;;;8.00;99.90;;;;;;4939002;29;20074;-89
2022/12/31 05:28:37;;;;;;;2.35;0.63;;;8.00;99.90;;;;;;4938883;29;20034;-90
2022/12/31 05:31:02;;;;;;;1.67;0.68;;;8.00;99.90;;;;;;4937793;29;20114;-90
2022/12/31 05:33:28;;;;;;;5.43;1.00;;;8.00;99.90;;;;;;4937716;29;20028;-90
2022/12/31 05:35:56;;;;;;;6.72;2.42;;;8.10;99.90;;;;;;4937640;29;20442;-90
2022/12/31 05:38:22;;;;;;;3.72;0.88;;;8.10;99.90;;;;;;4936111;29;20095;-88
2022/12/31 05:40:47;;;;;;;3.08;0.80;;;8.10;99.90;;;;;;4921818;29;20402;-90
2022/12/31 05:43:13;;;;;;;4.13;1.00;;;8.10;99.90;;;;;;4938562;29;20445;-89
2022/12/31 05:45:39;;;;;;;7.30;1.08;;;8.10;99.90;;;;;;4937755;29;20028;-90
2022/12/31 05:48:05;;;;;;;10.30;1.25;;;8.10;99.90;;;;;;4937417;29;20027;-89
2022/12/31 05:50:31;;;;;;;3.08;1.10;;;8.10;99.90;;;;;;4938421;29;20031;-90
2022/12/31 05:52:56;;;;;;;12.77;1.40;;;8.10;99.90;;;;;;4937283;29;20457;-89
2022/12/31 05:55:23;;;;;;;4.22;1.42;;;8.10;99.90;;;;;;4937446;29;20042;-90
2022/12/31 05:57:48;;;;;;;7.65;3.22;;;8.10;99.90;;;;;;4921334;29;20115;-90
2022/12/31 06:00:14;;;;;;;4.80;1.48;;;8.10;99.90;;;;;;4921287;29;20132;-89
2022/12/31 06:02:40;;;;;;;9.13;1.92;;;8.10;99.90;;;;;;4921343;29;20482;-89
2022/12/31 06:05:06;;;;;;;5.93;1.95;;;8.10;99.90;;;;;;4921382;29;20031;-90
2022/12/31 06:07:32;;;;;;;8.30;3.03;;;8.10;99.90;;;;;;4937145;29;20063;-89
2022/12/31 06:09:57;;;;;;;2.95;1.60;;;8.10;99.90;;;;;;4921373;29;20035;-89
2022/12/31 06:12:23;;;;;;;5.13;1.85;;;8.10;99.90;;;;;;4937890;29;20047;-89
2022/12/31 06:14:49;;;;;;;6.15;2.00;;;8.10;99.90;;;;;;4938119;29;20032;-90
2022/12/31 06:17:14;;;;;;;6.93;1.80;;;8.10;99.90;;;;;;4936838;29;20450;-90
2022/12/31 06:19:40;;;;;;;7.90;1.85;;;8.10;99.90;;;;;;4937989;29;20056;-90
2022/12/31 06:22:05;;;;;;;6.32;2.00;;;8.10;99.90;;;;;;4936741;29;20029;-90
2022/12/31 06:24:31;;;;;;;4.10;1.60;;;8.10;99.90;;;;;;4937931;29;20046;-89
2022/12/31 06:26:57;;;;;;;7.22;1.73;;;8.10;99.90;;;;;;4937731;29;20107;-91
2022/12/31 06:29:22;;;;;;;4.65;1.40;;;8.10;99.90;;;;;;4921701;29;20038;-89
2022/12/31 06:31:48;;;;;;;7.78;1.42;;;8.10;99.90;;;;;;4941144;29;20466;-89
2022/12/31 06:34:14;;;;;;;3.88;1.52;;;8.10;99.90;;;;;;4941760;29;20031;-90
2022/12/31 06:36:39;;;;;;;6.95;1.35;;;8.10;99.90;;;;;;4939214;29;20335;-88
2022/12/31 06:39:05;;;;;;;4.63;1.30;;;8.10;99.90;;;;;;4938728;29;20069;-87
2022/12/31 06:41:31;;;;;;;4.78;1.73;;;8.10;99.90;;;;;;4921215;29;20512;-88
2022/12/31 06:43:57;;;;;;;3.28;1.30;;;8.10;99.90;;;;;;4937044;29;20036;-89
2022/12/31 06:46:22;;;;;;;3.45;1.27;;;8.10;99.90;;;;;;4937108;29;20035;-89
2022/12/31 06:48:48;;;;;;;2.65;1.25;;;8.10;99.90;;;;;;4936781;29;20038;-87
2022/12/31 06:51:19;;;;;;;5.43;1.00;;;8.10;99.90;;;;;;4937583;29;20102;-89
2022/12/31 06:53:47;;;;;;;2.15;0.90;;;8.10;99.90;;;;;;4936918;29;20028;-89
2022/12/31 06:56:16;;;;;;;4.13;1.27;;;8.20;99.90;;;;;;4920370;29;20118;-88
2022/12/31 06:58:42;;;;;;;2.45;0.77;;;8.20;99.90;;;;;;4936577;29;20078;-89
2022/12/31 07:01:44;;;;;;;3.20;0.98;;;8.20;99.90;;;;;;4920264;29;20381;-90
2022/12/31 07:04:48;;;;;;;1.88;0.98;;;8.20;99.90;;;;;;4920370;29;20043;-89
2022/12/31 07:07:48;;;;;;;2.10;0.85;;;8.20;99.90;;;;;;4920360;29;20032;-90
2022/12/31 07:10:21;;;;;;;4.93;1.00;;;8.20;99.90;;;;;;4859859;29;20041;-90
2022/12/31 07:13:07;;;;;;;1.88;0.65;;;8.20;99.90;;;;;;4859692;29;20053;-90
2022/12/31 07:15:54;;;;;;;2.17;0.65;;;8.20;99.90;;;;;;4860199;29;20033;-90
2022/12/31 07:18:32;;;;;;;1.98;0.65;;;8.20;99.90;;;;;;4859719;29;20045;-88
2022/12/31 07:20:58;;;;;;;0.85;0.70;;;8.20;99.90;;;;;;4859708;29;20045;-90
2022/12/31 07:23:24;;;;;;;2.05;0.50;;;8.10;99.90;;;;;;4859512;29;20048;-89
2022/12/31 07:26:03;;;;;;;1.10;0.50;;;8.20;99.90;;;;;;4859573;29;20037;-89
2022/12/31 07:28:44;;;;;;;1.88;0.95;;;8.10;99.90;;;;;;4859771;29;20033;-89
2022/12/31 07:31:32;;;;;;;0.98;0.50;;;8.10;99.90;;;;;;4859664;29;20600;-89
2022/12/31 07:34:25;;;;;;;0.98;0.60;;;8.10;99.90;;;;;;4852160;29;20069;-89
2022/12/31 07:37:16;;;;;;;2.13;1.05;;;8.10;99.90;;;;;;4838538;29;20049;-89
2022/12/31 07:39:45;;;;;;;2.35;0.90;;;8.10;99.90;;;;;;4859384;29;20131;-89
2022/12/31 07:42:20;;;;;;;2.00;0.90;;;8.10;99.90;;;;;;4859746;29;20025;-89
2022/12/31 07:44:53;;;;;;;1.55;0.73;;;8.00;99.90;;;;;;4864998;29;20041;-90
2022/12/31 07:47:24;;;;;;;1.10;1.00;;;8.00;99.90;;;;;;4935544;29;20024;-90
2022/12/31 07:49:50;;;;;;;1.27;0.80;;;8.00;99.90;;;;;;4919984;29;20038;-89
2022/12/31 07:52:17;;;;;;;2.63;1.08;;;8.10;99.90;;;;;;4936548;29;20031;-90
2022/12/31 07:54:42;;;;;;;3.30;1.50;;;8.10;99.90;;;;;;4919715;29;20039;-89
2022/12/31 07:57:13;;;;;;;2.15;0.98;;;8.10;99.90;;;;;;4935468;29;20530;-90
2022/12/31 08:00:05;;;;;;;0.63;0.32;;;8.00;99.90;;;;;;4919607;29;20042;-90
2022/12/31 08:03:16;;;;;;;1.38;0.30;;;8.00;99.90;;;;;;4936293;29;20051;-89
2022/12/31 08:05:41;;;;;;;1.92;0.15;;;8.00;99.90;;;;;;4931548;29;20393;-90
2022/12/31 08:08:31;;;;;;;0.68;0.20;;;7.90;99.90;;;;;;4919379;29;20020;-89
2022/12/31 08:11:35;;;;;;;2.15;0.17;;;7.80;99.90;;;;;;4936618;29;20087;-89
2022/12/31 08:14:01;;;;;;;0.15;0.10;;;7.80;99.90;;;;;;4935817;29;20052;-90
2022/12/31 08:16:27;;;;;;;0.00;0.00;;;7.70;99.90;;;;;;4936889;29;20024;-90
2022/12/31 08:18:53;;;;;;;3.30;0.10;;;7.70;99.90;;;;;;4941019;29;20071;-89
2022/12/31 08:21:37;;;;;;;1.42;0.30;;;7.60;99.90;;;;;;4953961;29;20027;-89
2022/12/31 08:24:21;;;;;;;0.40;0.20;;;7.60;99.90;;;;;;4940101;29;20472;-89
2022/12/31 08:27:29;;;;;;;0.28;0.20;;;7.60;99.90;;;;;;4936554;29;20032;-89
2022/12/31 08:30:06;;;;;;;0.70;0.20;;;7.60;99.90;;;;;;4899695;29;20048;-88
2022/12/31 08:33:12;;;;;;;1.60;0.30;;;7.50;99.90;;;;;;4901412;29;20041;-89
2022/12/31 08:36:05;;;;;;;0.88;0.50;;;7.50;99.90;;;;;;4864786;29;20136;-88
2022/12/31 08:38:49;;;;;;;1.60;0.22;;;7.50;99.90;;;;;;4901620;29;20086;-89
2022/12/31 08:41:17;;;;;;;1.10;0.30;;;7.50;99.90;;;;;;4900930;29;20410;-89
2022/12/31 08:44:07;;;;;;;4.13;0.40;;;7.50;99.90;;;;;;4897492;29;20044;-90
2022/12/31 08:46:47;;;;;;;1.52;0.47;;;7.50;99.90;;;;;;4897650;29;20086;-89
2022/12/31 08:49:13;;;;;;;0.40;0.35;;;7.50;99.90;;;;;;4901385;29;20044;-88
2022/12/31 08:51:40;;;;;;;3.95;0.20;;;7.50;99.90;;;;;;4899176;29;20163;-90
2022/12/31 08:54:08;;;;;;;0.95;0.38;;;7.50;99.90;;;;;;4897735;29;20173;-88
2022/12/31 08:56:56;;;;;;;2.05;0.30;;;7.60;99.90;;;;;;4899987;29;20029;-88
2022/12/31 08:59:46;;;;;;;0.75;0.60;;;7.60;99.90;;;;;;4897844;29;20530;-88
2022/12/31 09:02:49;;;;;;;0.63;0.30;;;7.60;99.90;;;;;;4897390;29;20117;-89
2022/12/31 09:05:21;;;;;;;0.75;0.30;;;7.60;99.90;;;;;;4897141;29;20033;-90
2022/12/31 09:08:05;;;;;;;2.58;0.30;;;7.60;99.90;;;;;;4943407;29;20036;-90
2022/12/31 09:10:42;;;;;;;1.13;0.50;;;7.60;99.90;;;;;;4936901;29;20024;-88
2022/12/31 09:13:36;;;;;;;1.38;0.95;;;7.60;99.90;;;;;;4951792;29;20032;-89
2022/12/31 09:16:17;;;;;;;0.70;0.50;;;7.60;99.90;;;;;;4936715;29;20079;-90
2022/12/31 09:18:43;;;;;;;;;;;7.60;99.90;;;;;;4936948;29;20048;-89
2022/12/31 09:21:11;;;;;;;3.42;0.80;;;7.50;99.90;;;;;;4922591;29;19906;-89
2022/12/31 09:23:37;;;;;;;1.63;0.90;;;7.60;99.90;;;;;;4939310;29;20070;-89
2022/12/31 09:26:27;;;;;;;1.52;0.60;;;7.60;99.90;;;;;;4938710;29;20031;-90
2022/12/31 09:29:16;;;;;;;0.60;0.40;;;7.50;99.90;;;;;;4923201;29;20031;-89
2022/12/31 09:31:50;;;;;;;2.20;0.60;;;7.60;99.90;;;;;;4938766;29;20031;-90
2022/12/31 09:34:32;;;;;;;1.05;0.20;;;7.60;99.90;;;;;;4922958;29;20119;-89
2022/12/31 09:37:20;;;;;;;0.52;0.20;;;7.60;99.90;;;;;;4938833;29;20051;-89
2022/12/31 09:39:47;;;;;;;0.77;0.17;;;7.60;99.90;;;;;;4939720;29;20118;-90
2022/12/31 09:42:13;;;;;;;0.60;0.35;;;7.60;99.90;;;;;;4939220;29;20039;-90
2022/12/31 09:44:41;;;;;;;1.65;1.30;;;7.60;99.90;;;;;;4925644;29;20123;-89
2022/12/31 09:47:52;;;;;;;0.52;0.40;;;7.60;99.90;;;;;;4926512;29;20087;-89
2022/12/31 09:50:33;;;;;;;;;;;7.60;99.90;;;;;;4936904;29;20046;-89
2022/12/31 09:53:20;;;;;;;1.95;0.70;;;7.60;99.90;;;;;;4938805;29;19913;-90
2022/12/31 09:55:56;;;;;;;1.42;0.60;;;7.70;99.90;;;;;;4922462;29;20038;-90
2022/12/31 09:58:36;;;;;;;2.95;0.95;;;7.70;99.90;;;;;;4939581;29;20035;-90
2022/12/31 10:01:17;;;;;;;2.45;0.80;;;7.70;99.90;;;;;;4938995;29;20091;-90
2022/12/31 10:04:20;;;;;;;1.75;1.00;;;7.70;99.90;;;;;;4922166;29;20187;-90
2022/12/31 10:07:17;;;;;;;2.00;1.00;;;7.70;99.90;;;;;;4922744;29;20035;-90
2022/12/31 10:09:54;;;;;;;2.30;1.20;;;7.70;99.90;;;;;;4922714;29;20115;-89
2022/12/31 10:12:19;;;;;;;2.35;1.20;;;7.80;99.90;;;;;;4938953;29;20080;-90
2022/12/31 10:15:13;;;;;;;1.95;1.15;;;7.80;99.90;;;;;;4938852;29;20063;-89
2022/12/31 10:17:44;;;;;;;2.45;1.23;;;7.80;99.90;;;;;;4921966;29;20067;-89
2022/12/31 10:20:28;;;;;;;4.45;1.42;;;7.80;99.90;;;;;;4939000;29;20099;-90
2022/12/31 10:23:06;;;;;;;1.83;1.42;;;7.80;99.90;;;;;;4921992;29;20039;-89
2022/12/31 10:26:03;;;;;;;1.73;1.13;;;7.80;99.90;;;;;;4938953;29;20028;-90
2022/12/31 10:28:57;;;;;;;3.25;1.17;;;7.80;99.90;;;;;;4922179;29;20516;-90
2022/12/31 10:31:35;;;;;;;3.25;1.08;;;7.80;99.90;;;;;;4907600;29;20497;-89
2022/12/31 10:34:38;;;;;;;4.53;1.25;;;7.80;99.90;;;;;;4921493;29;20090;-89
2022/12/31 10:37:16;;;;;;;5.47;1.63;;;7.80;99.90;;;;;;4921616;29;20061;-89
2022/12/31 10:40:03;;;;;;;1.83;1.17;;;7.80;99.90;;;;;;4937217;29;20060;-89
2022/12/31 10:42:58;;;;;;;3.30;1.60;;;7.80;99.90;;;;;;4937166;29;20032;-90
2022/12/31 10:45:29;;;;;;;3.10;1.08;;;7.80;99.90;;;;;;4938161;29;20039;-89
2022/12/31 10:48:05;;;;;;;5.55;1.10;;;7.80;99.90;;;;;;4937840;29;20099;-89
2022/12/31 10:50:55;;;;;;;2.53;1.13;;;7.80;99.90;;;;;;4920835;29;20063;-90
2022/12/31 10:53:24;;;;;;;1.70;1.20;;;7.90;99.90;;;;;;4937556;29;20043;-89
2022/12/31 10:56:31;;;;;;;2.50;1.65;;;7.90;99.90;;;;;;4937612;29;20031;-89
2022/12/31 10:59:24;;;;;;;1.55;1.10;;;7.90;99.90;;;;;;4860280;29;20033;-90
2022/12/31 11:02:19;;;;;;;4.25;1.30;;;7.90;99.90;;;;;;4860498;29;20162;-88
2022/12/31 11:04:44;;;;;;;3.78;1.30;;;7.90;99.90;;;;;;4860478;29;20053;-88
2022/12/31 11:07:53;;;;;;;2.78;1.33;;;7.90;99.90;;;;;;4860337;29;20045;-87
2022/12/31 11:10:42;;;;;;;1.77;1.30;;;7.90;99.90;;;;;;4860009;29;20429;-87
2022/12/31 11:13:40;;;;;;;5.78;1.08;;;7.90;99.90;;;;;;4860135;29;20044;-90
2022/12/31 11:16:47;;;;;;;2.95;1.58;;;7.90;99.90;;;;;;4848102;29;20037;-90
2022/12/31 11:19:15;;;;;;;5.03;1.80;;;8.00;99.90;;;;;;4833740;29;20414;-88
2022/12/31 11:22:00;;;;;;;3.40;1.80;;;8.00;99.90;;;;;;4841333;29;20038;-88
2022/12/31 11:24:28;;;;;;;3.28;1.70;;;8.00;99.90;;;;;;4841405;29;20068;-90
2022/12/31 11:27:35;;;;;;;3.15;1.60;;;8.10;99.90;;;;;;4841295;29;20515;-89
2022/12/31 11:30:31;;;;;;;3.42;1.88;;;8.10;99.90;;;;;;4887589;29;20134;-89
2022/12/31 11:33:21;;;;;;;43.00;32.17;;;8.10;99.90;;;;;;4915761;29;20486;-89
2022/12/31 11:36:08;;;;;;;12.63;7.57;;;8.10;99.90;;;;;;4900058;29;20044;-88
2022/12/31 11:38:52;;;;;;;37.50;18.80;;;8.20;99.90;;;;;;4915893;29;20032;-89
2022/12/31 11:41:48;;;;;;;23.33;10.25;;;8.20;99.90;;;;;;4915768;29;20036;-89
2022/12/31 11:44:50;;;;;;;31.48;14.60;;;8.20;99.90;;;;;;4898901;29;20413;-89
2022/12/31 11:47:42;;;;;;;19.30;10.43;;;8.20;99.90;;;;;;4900141;29;20024;-89
2022/12/31 11:50:40;;;;;;;10.90;5.93;;;8.20;99.90;;;;;;4916060;29;20336;-89
2022/12/31 11:53:56;;;;;;;5.97;3.70;;;8.20;99.90;;;;;;4899832;29;20024;-90
2022/12/31 11:56:30;;;;;;;3.97;2.33;;;8.20;99.90;;;;;;4911237;29;20097;-89
2022/12/31 11:58:56;;;;;;;3.47;2.15;;;8.30;99.90;;;;;;4951276;29;20132;-90
2022/12/31 12:01:40;;;;;;;3.22;2.28;;;8.30;99.90;;;;;;4935417;29;20039;-90
2022/12/31 12:04:09;;;;;;;2.80;1.88;;;8.40;99.90;;;;;;4951443;29;20098;-89
2022/12/31 12:06:35;;;;;;;3.55;1.90;;;8.40;99.90;;;;;;4951458;29;20035;-89
2022/12/31 12:09:05;;;;;;;3.50;1.95;;;8.40;99.90;;;;;;4936444;29;20028;-89
2022/12/31 12:11:36;;;;;;;3.45;2.53;;;8.40;99.90;;;;;;4936348;29;20111;-90
2022/12/31 12:14:36;;;;;;;5.25;2.00;;;8.50;99.90;;;;;;4936464;29;20035;-90
2022/12/31 12:17:07;;;;;;;2.38;1.77;;;8.50;99.90;;;;;;4935229;29;20028;-89
2022/12/31 12:19:34;;;;;;;3.22;2.00;;;8.50;99.90;;;;;;4936360;29;20502;-89
2022/12/31 12:22:13;;;;;;;6.15;2.20;;;8.60;99.90;;;;;;4936191;29;20240;-90
2022/12/31 12:24:39;;;;;;;6.00;1.80;;;8.60;99.90;;;;;;4936674;29;20039;-89
2022/12/31 12:27:20;;;;;;;6.03;1.60;;;8.70;99.90;;;;;;4936979;29;20508;-90
2022/12/31 12:29:47;;;;;;;7.22;1.88;;;8.80;99.90;;;;;;4936596;29;20068;-90
2022/12/31 12:32:23;;;;;;;7.22;2.13;;;8.90;99.90;;;;;;4919213;29;20027;-90
2022/12/31 12:34:49;;;;;;;11.48;2.47;;;9.00;99.90;;;;;;4936261;29;20027;-89
2022/12/31 12:37:25;;;;;;;15.50;2.10;;;9.10;99.90;;;;;;4936315;29;20023;-90
2022/12/31 12:40:20;;;;;;;12.18;2.33;;;9.10;99.90;;;;;;4919220;29;20027;-90
2022/12/31 12:42:51;;;;;;;7.40;2.40;;;9.20;99.90;;;;;;4936017;29;20394;-90
2022/12/31 12:45:18;;;;;;;;;;;9.30;99.90;;;;;;4935365;29;20035;-89
2022/12/31 12:47:53;;;;;;;14.40;3.20;;;9.30;99.90;;;;;;4919052;29;20001;-89
2022/12/31 12:50:22;;;;;;;16.75;2.80;;;9.30;99.90;;;;;;4936032;29;20031;-90
2022/12/31 12:52:54;;;;;;;15.18;2.55;;;9.40;99.90;;;;;;4936081;29;20036;-89
2022/12/31 12:55:25;;;;;;;19.25;3.30;;;9.50;99.90;;;;;;4923427;29;20031;-89
2022/12/31 12:57:57;;;;;;;22.17;2.58;;;9.50;99.90;;;;;;4927959;29;20434;-89
2022/12/31 13:00:48;;;;;;;16.77;2.53;;;9.60;99.90;;;;;;4926560;29;20039;-87
2022/12/31 13:03:36;;;;;;;14.20;2.40;;;9.60;99.90;;;;;;4927329;29;20441;-90
2022/12/31 13:06:04;;;;;;;11.82;2.10;;;9.70;99.90;;;;;;4925249;29;20043;-89
2022/12/31 13:08:42;;;;;;;14.50;2.15;;;9.70;99.90;;;;;;4925530;29;20043;-90
2022/12/31 13:11:24;;;;;;;13.50;3.00;;;9.70;99.90;;;;;;4924793;29;20091;-91
2022/12/31 13:13:58;;;;;;;17.42;2.40;;;9.70;99.90;;;;;;4924238;29;20031;-89
2022/12/31 13:16:36;;;;;;;21.20;3.13;;;9.80;99.90;;;;;;4923367;29;20024;-90
2022/12/31 13:19:29;;;;;;;25.27;3.22;;;9.80;99.90;;;;;;4927313;29;20047;-91
2022/12/31 13:22:12;;;;;;;15.68;3.45;;;9.90;99.90;;;;;;4954741;29;20549;-90
2022/12/31 13:24:49;;;;;;;22.95;2.55;;;9.80;99.90;;;;;;4939909;29;20031;-90
2022/12/31 13:27:27;;;;;;;16.55;2.10;;;9.80;99.90;;;;;;4938875;29;20024;-90
2022/12/31 13:29:56;;;;;;;24.30;2.55;;;9.80;99.90;;;;;;4939725;29;20091;-90
2022/12/31 13:32:39;;;;;;;24.65;3.00;;;9.80;99.90;;;;;;4954659;29;20057;-90
2022/12/31 13:35:28;;;;;;;19.65;2.83;;;9.90;99.90;;;;;;4954460;29;20035;-90
2022/12/31 13:38:20;;;;;;;16.98;3.10;;;9.80;99.90;;;;;;4920236;29;20062;-91
2022/12/31 13:40:56;;;;;;;23.73;2.95;;;9.80;99.90;;;;;;4954517;29;20046;-89
2022/12/31 13:43:48;;;;;;;21.92;2.90;;;9.90;99.90;;;;;;4939421;29;20028;-91
2022/12/31 13:46:32;;;;;;;22.42;2.53;;;9.80;99.90;;;;;;4946517;29;20047;-89
2022/12/31 13:49:03;;;;;;;21.73;2.47;;;9.80;99.90;;;;;;4938009;29;20506;-90